Saturday, May 28, 2016
06:01 UTC
  |  Log In   |  Register Free
Airport Search:

Gainesville Municipal Airport
(KGLE)

FAA data valid effective Mar 31 2016 - May 26 2016 (unless otherwise noted).

 
 
 
 
 
 
 
 
 
 
 
 
 
 
Current Aviation Weather for KGLE

Weather Summary


The most recent METAR observation for GLE was updated at: 12:55 UTC
METAR for KGLE is not available. Closest METAR is for KGYI
KGLE  (most recent observation was updatred at 28:05 UTC)
280515Z AUTO 12008KT 10SM CLR 18/17 A2984 RMK AO2 T01800167

KGYI  (26.4 nm SW)   (most recent observation was updated at 28:05 UTC)
280515Z AUTO 12007KT 10SM CLR 17/15 A2984 RMK AO2 T01660148

KDTO  (27.0 nm NE)   (most recent observation was updated at 28:04 UTC)
280453Z AUTO 12006KT 10SM CLR 19/17 A2981 RMK AO2 SLP088 T01890172

TAF for KGLE is not available.
GlobalAir.com is loading additional information.
 Current Weather at GLE
65.0 F° (18.3 C°)

Southeast winds at 8.1 mph
Pressure:
29.84 in
Humidity:
90%
Wind:
Southeast at 8.1 mph
Dew Point:
61.9 F° (16.6 C°)
Visibility:
10.00 mi
GLE NOAA Radar




Find All Airport Services Find A Hotel Find A Rental Car Find A Golf Course Find A Restaurant $100 Hamburger



Airport Weather Forecast for KGLE

Translated METAR for KGLE (0515 UTC)
METAR:
KGLE 280515Z AUTO 12008KT 10SM CLR 18/17 A2984 RMK AO2 T01800167
Conditions at:
KGLE (Gainesville Muni, TX) observed 0515 UTC 28 May 2016
Temperature:
18°C (64.4°F)
Dewpoint:
17°C (62.6°F) [RH = 93.9]
Pressure:
29.84 inches Hg (1010.5 mb)
Winds:
from the ESE (120 degrees) at 9.2 mph (8 knots: 4.1 m/s)
Visibility:
10 mile(s)
Ceiling:
at least 12,000 feet AGL
Clouds:
Clear below 12,000 feet AGL
Remarks:
site is un-manned
site is automated and HAS a precipitation sensor

Translated TAF for TAF for GLE is not available. Refer to local area forecast.
FBO's on the Field
FBO Company Facility Photos Services Transportation Aviation Fuel Prices: Prices include tax
Catering Weather Repair Courtesy Rental Type 100LL JetA JetA+ MOGAS 8087
 
City of Gainesville Municipal Airport

This FBO has not yet been rated
FS:Phillips 66
Last Updated: May-24
Login to update fuel prices
SS:
Contact City of Gainesville Municipal AirportMore FBO Information
 
Add another FBO Facility Photos Catering Weather Repair Courtesy Rental Type 100LL JetA JetA+ MOGAS 8087
Services Transportation Aviation Fuel Prices: Prices include tax


model-print
model-print
model-print
model-print